<?xml version="1.0" encoding="UTF-8" standalone="no" ?>
<gpx xmlns="http://www.topografix.com/GPX/1/1" xmlns:xsi="http://www.w3.org/2001/XMLSchema-instance" xsi:schemaLocation="http://www.topografix.com/GPX/1/1 http://www.topografix.com/GPX/1/1/gpx.xsd" version="1.1" creator="VisuGPX - https://www.visugpx.com">
  <metadata>
    <name>Du village de Malleval jusqu'au village de Roisey</name>
  </metadata>
  <wpt lat="45.38542" lon="4.72467">
    <ele>256.9</ele>
    <name><![CDATA[Parking en contrebas de la poste et de l'école]]></name>
  </wpt>
  <wpt lat="45.38357" lon="4.72867">
    <ele>240.6</ele>
    <name><![CDATA[Pont et panneau indicateur]]></name>
  </wpt>
  <wpt lat="45.38853" lon="4.72667">
    <ele>310.4</ele>
    <name><![CDATA[Panneau indicateur]]></name>
  </wpt>
  <wpt lat="45.38983" lon="4.72371">
    <ele>322.1</ele>
    <name><![CDATA[Accès à la]]></name>
  </wpt>
  <wpt lat="45.39128" lon="4.71692">
    <ele>343.4</ele>
    <name><![CDATA[Panneau indicateur de rando. Sordio de l'Agneau]]></name>
  </wpt>
  <wpt lat="45.39153" lon="4.7162">
    <ele>344.9</ele>
    <name><![CDATA[Carrefour de chemins]]></name>
  </wpt>
  <wpt lat="45.39443" lon="4.71085">
    <ele>351.4</ele>
    <name><![CDATA[Intersection - Panneau indicateur]]></name>
  </wpt>
  <wpt lat="45.39628" lon="4.70733">
    <ele>355.6</ele>
    <name><![CDATA[Panneau indicateur]]></name>
  </wpt>
  <wpt lat="45.40081" lon="4.69384">
    <ele>384.3</ele>
    <name><![CDATA[Croisement]]></name>
  </wpt>
  <wpt lat="45.39406" lon="4.69111">
    <ele>405.8</ele>
    <name><![CDATA[Chemin du Lac]]></name>
  </wpt>
  <wpt lat="45.39214" lon="4.68195">
    <ele>443.3</ele>
    <name><![CDATA[Le Briat]]></name>
  </wpt>
  <wpt lat="45.3882" lon="4.68684">
    <ele>425.2</ele>
    <name><![CDATA[Croix]]></name>
  </wpt>
  <wpt lat="45.38449" lon="4.68778">
    <ele>405.2</ele>
    <name><![CDATA[Hameau de Toucheboeuf]]></name>
  </wpt>
  <wpt lat="45.38624" lon="4.69521">
    <ele>386.6</ele>
    <name><![CDATA[Village de Bessay]]></name>
  </wpt>
  <wpt lat="45.38618" lon="4.71094">
    <ele>310</ele>
    <name><![CDATA[Petit pont de bois]]></name>
  </wpt>
  <wpt lat="45.38536" lon="4.72263">
    <ele>264.3</ele>
    <name><![CDATA[Panneau indicateur de randonnées]]></name>
  </wpt>
  <wpt lat="45.38543" lon="4.72454">
    <ele>257.1</ele>
    <name><![CDATA[Parking en contrebas de la poste et de l'école]]></name>
  </wpt>
  <trk>
    <name><![CDATA[Du village de Malleval jusqu'au village de Roisey]]></name>
    <extensions>
      <line xmlns="http://www.topografix.com/GPX/gpx_style/0/2">
        <color>0000FF</color>
        <width>4</width>
      </line>
    </extensions>
    <trkseg>
      <trkpt lat="45.38542" lon="4.72467">
        <ele>257</ele>
        <time>2021-05-30T08:59:10+02:00</time>
      </trkpt>
      <trkpt lat="45.38531" lon="4.72486">
        <ele>255</ele>
        <time>2021-05-30T08:59:15+02:00</time>
      </trkpt>
      <trkpt lat="45.38533" lon="4.72505">
        <ele>255</ele>
        <time>2021-05-30T08:59:20+02:00</time>
      </trkpt>
      <trkpt lat="45.38525" lon="4.72524">
        <ele>254</ele>
        <time>2021-05-30T08:59:25+02:00</time>
      </trkpt>
      <trkpt lat="45.38515" lon="4.72538">
        <ele>252</ele>
        <time>2021-05-30T08:59:30+02:00</time>
      </trkpt>
      <trkpt lat="45.38497" lon="4.72557">
        <ele>248</ele>
        <time>2021-05-30T08:59:35+02:00</time>
      </trkpt>
      <trkpt lat="45.38475" lon="4.72579">
        <ele>249</ele>
        <time>2021-05-30T08:59:40+02:00</time>
      </trkpt>
      <trkpt lat="45.38429" lon="4.7262">
        <ele>249</ele>
        <time>2021-05-30T08:59:45+02:00</time>
      </trkpt>
      <trkpt lat="45.38395" lon="4.72651">
        <ele>249</ele>
        <time>2021-05-30T08:59:50+02:00</time>
      </trkpt>
      <trkpt lat="45.38349" lon="4.72689">
        <ele>251</ele>
        <time>2021-05-30T08:59:55+02:00</time>
      </trkpt>
      <trkpt lat="45.38338" lon="4.72722">
        <ele>247</ele>
        <time>2021-05-30T09:00:00+02:00</time>
      </trkpt>
      <trkpt lat="45.38326" lon="4.72728">
        <ele>244</ele>
        <time>2021-05-30T09:00:05+02:00</time>
      </trkpt>
      <trkpt lat="45.38315" lon="4.72745">
        <ele>239</ele>
        <time>2021-05-30T09:00:10+02:00</time>
      </trkpt>
      <trkpt lat="45.38319" lon="4.7276">
        <ele>239</ele>
        <time>2021-05-30T09:00:15+02:00</time>
      </trkpt>
      <trkpt lat="45.38318" lon="4.72779">
        <ele>238</ele>
        <time>2021-05-30T09:00:20+02:00</time>
      </trkpt>
      <trkpt lat="45.38322" lon="4.72806">
        <ele>237</ele>
        <time>2021-05-30T09:00:25+02:00</time>
      </trkpt>
      <trkpt lat="45.3832" lon="4.72832">
        <ele>236</ele>
        <time>2021-05-30T09:00:30+02:00</time>
      </trkpt>
      <trkpt lat="45.38326" lon="4.72838">
        <ele>237</ele>
        <time>2021-05-30T09:00:35+02:00</time>
      </trkpt>
      <trkpt lat="45.38334" lon="4.7286">
        <ele>236</ele>
        <time>2021-05-30T09:00:40+02:00</time>
      </trkpt>
      <trkpt lat="45.38349" lon="4.72859">
        <ele>240</ele>
        <time>2021-05-30T09:00:45+02:00</time>
      </trkpt>
      <trkpt lat="45.38357" lon="4.72867">
        <ele>241</ele>
        <time>2021-05-30T09:00:50+02:00</time>
      </trkpt>
      <trkpt lat="45.38361" lon="4.72907">
        <ele>238</ele>
        <time>2021-05-30T09:00:55+02:00</time>
      </trkpt>
      <trkpt lat="45.38359" lon="4.72931">
        <ele>236</ele>
        <time>2021-05-30T09:01:00+02:00</time>
      </trkpt>
      <trkpt lat="45.38344" lon="4.72943">
        <ele>232</ele>
        <time>2021-05-30T09:01:05+02:00</time>
      </trkpt>
      <trkpt lat="45.38337" lon="4.72966">
        <ele>228</ele>
        <time>2021-05-30T09:01:10+02:00</time>
      </trkpt>
      <trkpt lat="45.38331" lon="4.72987">
        <ele>224</ele>
        <time>2021-05-30T09:01:15+02:00</time>
      </trkpt>
      <trkpt lat="45.38323" lon="4.73003">
        <ele>222</ele>
        <time>2021-05-30T09:01:20+02:00</time>
      </trkpt>
      <trkpt lat="45.38314" lon="4.73022">
        <ele>220</ele>
        <time>2021-05-30T09:01:25+02:00</time>
      </trkpt>
      <trkpt lat="45.38298" lon="4.73029">
        <ele>218</ele>
        <time>2021-05-30T09:01:30+02:00</time>
      </trkpt>
      <trkpt lat="45.38286" lon="4.73025">
        <ele>217</ele>
        <time>2021-05-30T09:01:35+02:00</time>
      </trkpt>
      <trkpt lat="45.38269" lon="4.73011">
        <ele>216</ele>
        <time>2021-05-30T09:01:40+02:00</time>
      </trkpt>
      <trkpt lat="45.38263" lon="4.73039">
        <ele>213</ele>
        <time>2021-05-30T09:01:45+02:00</time>
      </trkpt>
      <trkpt lat="45.38281" lon="4.73058">
        <ele>213</ele>
        <time>2021-05-30T09:01:50+02:00</time>
      </trkpt>
      <trkpt lat="45.38269" lon="4.73037">
        <ele>214</ele>
        <time>2021-05-30T09:01:55+02:00</time>
      </trkpt>
      <trkpt lat="45.38283" lon="4.73029">
        <ele>216</ele>
        <time>2021-05-30T09:02:00+02:00</time>
      </trkpt>
      <trkpt lat="45.38297" lon="4.73036">
        <ele>217</ele>
        <time>2021-05-30T09:02:05+02:00</time>
      </trkpt>
      <trkpt lat="45.38318" lon="4.73026">
        <ele>220</ele>
        <time>2021-05-30T09:02:10+02:00</time>
      </trkpt>
      <trkpt lat="45.38327" lon="4.73007">
        <ele>222</ele>
        <time>2021-05-30T09:02:15+02:00</time>
      </trkpt>
      <trkpt lat="45.38336" lon="4.72983">
        <ele>226</ele>
        <time>2021-05-30T09:02:20+02:00</time>
      </trkpt>
      <trkpt lat="45.38343" lon="4.72953">
        <ele>231</ele>
        <time>2021-05-30T09:02:25+02:00</time>
      </trkpt>
      <trkpt lat="45.38354" lon="4.72944">
        <ele>234</ele>
        <time>2021-05-30T09:02:30+02:00</time>
      </trkpt>
      <trkpt lat="45.38368" lon="4.72921">
        <ele>238</ele>
        <time>2021-05-30T09:02:35+02:00</time>
      </trkpt>
      <trkpt lat="45.38367" lon="4.72901">
        <ele>240</ele>
        <time>2021-05-30T09:02:40+02:00</time>
      </trkpt>
      <trkpt lat="45.38362" lon="4.72881">
        <ele>240</ele>
        <time>2021-05-30T09:02:45+02:00</time>
      </trkpt>
      <trkpt lat="45.38369" lon="4.72875">
        <ele>242</ele>
        <time>2021-05-30T09:02:50+02:00</time>
      </trkpt>
      <trkpt lat="45.38383" lon="4.72901">
        <ele>242</ele>
        <time>2021-05-30T09:02:55+02:00</time>
      </trkpt>
      <trkpt lat="45.38392" lon="4.7293">
        <ele>242</ele>
        <time>2021-05-30T09:03:00+02:00</time>
      </trkpt>
      <trkpt lat="45.38401" lon="4.72947">
        <ele>244</ele>
        <time>2021-05-30T09:03:05+02:00</time>
      </trkpt>
      <trkpt lat="45.38393" lon="4.72967">
        <ele>242</ele>
        <time>2021-05-30T09:03:10+02:00</time>
      </trkpt>
      <trkpt lat="45.38388" lon="4.72996">
        <ele>240</ele>
        <time>2021-05-30T09:03:15+02:00</time>
      </trkpt>
      <trkpt lat="45.38387" lon="4.73023">
        <ele>242</ele>
        <time>2021-05-30T09:03:20+02:00</time>
      </trkpt>
      <trkpt lat="45.38378" lon="4.73037">
        <ele>239</ele>
        <time>2021-05-30T09:03:25+02:00</time>
      </trkpt>
      <trkpt lat="45.38369" lon="4.73057">
        <ele>237</ele>
        <time>2021-05-30T09:03:30+02:00</time>
      </trkpt>
      <trkpt lat="45.38364" lon="4.73078">
        <ele>235</ele>
        <time>2021-05-30T09:03:35+02:00</time>
      </trkpt>
      <trkpt lat="45.38363" lon="4.731">
        <ele>232</ele>
        <time>2021-05-30T09:03:40+02:00</time>
      </trkpt>
      <trkpt lat="45.38369" lon="4.73124">
        <ele>232</ele>
        <time>2021-05-30T09:03:45+02:00</time>
      </trkpt>
      <trkpt lat="45.38379" lon="4.73148">
        <ele>234</ele>
        <time>2021-05-30T09:03:50+02:00</time>
      </trkpt>
      <trkpt lat="45.3839" lon="4.73166">
        <ele>238</ele>
        <time>2021-05-30T09:03:55+02:00</time>
      </trkpt>
      <trkpt lat="45.38396" lon="4.73177">
        <ele>239</ele>
        <time>2021-05-30T09:04:00+02:00</time>
      </trkpt>
      <trkpt lat="45.38413" lon="4.73204">
        <ele>238</ele>
        <time>2021-05-30T09:04:05+02:00</time>
      </trkpt>
      <trkpt lat="45.38435" lon="4.73227">
        <ele>238</ele>
        <time>2021-05-30T09:04:10+02:00</time>
      </trkpt>
      <trkpt lat="45.38454" lon="4.73235">
        <ele>241</ele>
        <time>2021-05-30T09:04:15+02:00</time>
      </trkpt>
      <trkpt lat="45.38482" lon="4.73236">
        <ele>251</ele>
        <time>2021-05-30T09:04:20+02:00</time>
      </trkpt>
      <trkpt lat="45.38505" lon="4.73225">
        <ele>261</ele>
        <time>2021-05-30T09:04:25+02:00</time>
      </trkpt>
      <trkpt lat="45.38523" lon="4.73215">
        <ele>265</ele>
        <time>2021-05-30T09:04:30+02:00</time>
      </trkpt>
      <trkpt lat="45.38538" lon="4.7321">
        <ele>267</ele>
        <time>2021-05-30T09:04:35+02:00</time>
      </trkpt>
      <trkpt lat="45.38554" lon="4.73223">
        <ele>265</ele>
        <time>2021-05-30T09:04:40+02:00</time>
      </trkpt>
      <trkpt lat="45.38572" lon="4.73224">
        <ele>266</ele>
        <time>2021-05-30T09:04:45+02:00</time>
      </trkpt>
      <trkpt lat="45.38572" lon="4.73195">
        <ele>271</ele>
        <time>2021-05-30T09:04:50+02:00</time>
      </trkpt>
      <trkpt lat="45.38576" lon="4.73169">
        <ele>276</ele>
        <time>2021-05-30T09:04:55+02:00</time>
      </trkpt>
      <trkpt lat="45.38584" lon="4.73145">
        <ele>280</ele>
        <time>2021-05-30T09:05:00+02:00</time>
      </trkpt>
      <trkpt lat="45.38603" lon="4.73101">
        <ele>286</ele>
        <time>2021-05-30T09:05:05+02:00</time>
      </trkpt>
      <trkpt lat="45.38614" lon="4.73069">
        <ele>290</ele>
        <time>2021-05-30T09:05:10+02:00</time>
      </trkpt>
      <trkpt lat="45.38629" lon="4.73032">
        <ele>294</ele>
        <time>2021-05-30T09:05:15+02:00</time>
      </trkpt>
      <trkpt lat="45.38635" lon="4.73003">
        <ele>297</ele>
        <time>2021-05-30T09:05:20+02:00</time>
      </trkpt>
      <trkpt lat="45.38644" lon="4.72973">
        <ele>300</ele>
        <time>2021-05-30T09:05:25+02:00</time>
      </trkpt>
      <trkpt lat="45.38666" lon="4.72925">
        <ele>305</ele>
        <time>2021-05-30T09:05:30+02:00</time>
      </trkpt>
      <trkpt lat="45.38686" lon="4.7289">
        <ele>306</ele>
        <time>2021-05-30T09:05:35+02:00</time>
      </trkpt>
      <trkpt lat="45.38699" lon="4.72867">
        <ele>306</ele>
        <time>2021-05-30T09:05:40+02:00</time>
      </trkpt>
      <trkpt lat="45.38725" lon="4.72814">
        <ele>307</ele>
        <time>2021-05-30T09:05:45+02:00</time>
      </trkpt>
      <trkpt lat="45.38749" lon="4.72764">
        <ele>307</ele>
        <time>2021-05-30T09:05:50+02:00</time>
      </trkpt>
      <trkpt lat="45.38769" lon="4.72723">
        <ele>307</ele>
        <time>2021-05-30T09:05:55+02:00</time>
      </trkpt>
      <trkpt lat="45.38793" lon="4.72684">
        <ele>308</ele>
        <time>2021-05-30T09:06:00+02:00</time>
      </trkpt>
      <trkpt lat="45.38805" lon="4.72669">
        <ele>308</ele>
        <time>2021-05-30T09:06:05+02:00</time>
      </trkpt>
      <trkpt lat="45.38818" lon="4.72651">
        <ele>308</ele>
        <time>2021-05-30T09:06:10+02:00</time>
      </trkpt>
      <trkpt lat="45.38853" lon="4.72667">
        <ele>310</ele>
        <time>2021-05-30T09:06:15+02:00</time>
      </trkpt>
      <trkpt lat="45.38855" lon="4.72649">
        <ele>311</ele>
        <time>2021-05-30T09:06:20+02:00</time>
      </trkpt>
      <trkpt lat="45.38855" lon="4.72627">
        <ele>311</ele>
        <time>2021-05-30T09:06:25+02:00</time>
      </trkpt>
      <trkpt lat="45.38885" lon="4.72556">
        <ele>314</ele>
        <time>2021-05-30T09:06:30+02:00</time>
      </trkpt>
      <trkpt lat="45.3889" lon="4.72546">
        <ele>314</ele>
        <time>2021-05-30T09:06:35+02:00</time>
      </trkpt>
      <trkpt lat="45.38908" lon="4.72516">
        <ele>317</ele>
        <time>2021-05-30T09:06:40+02:00</time>
      </trkpt>
      <trkpt lat="45.38927" lon="4.72486">
        <ele>318</ele>
        <time>2021-05-30T09:06:45+02:00</time>
      </trkpt>
      <trkpt lat="45.38967" lon="4.72412">
        <ele>321</ele>
        <time>2021-05-30T09:06:50+02:00</time>
      </trkpt>
      <trkpt lat="45.38983" lon="4.72371">
        <ele>322</ele>
        <time>2021-05-30T09:06:55+02:00</time>
      </trkpt>
      <trkpt lat="45.38989" lon="4.72376">
        <ele>322</ele>
        <time>2021-05-30T09:07:00+02:00</time>
      </trkpt>
      <trkpt lat="45.38999" lon="4.72396">
        <ele>322</ele>
        <time>2021-05-30T09:07:05+02:00</time>
      </trkpt>
      <trkpt lat="45.39009" lon="4.72437">
        <ele>321</ele>
        <time>2021-05-30T09:07:10+02:00</time>
      </trkpt>
      <trkpt lat="45.39006" lon="4.72406">
        <ele>322</ele>
        <time>2021-05-30T09:07:15+02:00</time>
      </trkpt>
      <trkpt lat="45.38997" lon="4.72383">
        <ele>322</ele>
        <time>2021-05-30T09:07:20+02:00</time>
      </trkpt>
      <trkpt lat="45.38986" lon="4.72367">
        <ele>322</ele>
        <time>2021-05-30T09:07:25+02:00</time>
      </trkpt>
      <trkpt lat="45.39012" lon="4.72287">
        <ele>323</ele>
        <time>2021-05-30T09:07:30+02:00</time>
      </trkpt>
      <trkpt lat="45.39043" lon="4.72161">
        <ele>326</ele>
        <time>2021-05-30T09:07:35+02:00</time>
      </trkpt>
      <trkpt lat="45.39046" lon="4.72135">
        <ele>327</ele>
        <time>2021-05-30T09:07:40+02:00</time>
      </trkpt>
      <trkpt lat="45.39058" lon="4.72062">
        <ele>330</ele>
        <time>2021-05-30T09:07:45+02:00</time>
      </trkpt>
      <trkpt lat="45.39067" lon="4.72007">
        <ele>333</ele>
        <time>2021-05-30T09:07:50+02:00</time>
      </trkpt>
      <trkpt lat="45.39067" lon="4.71957">
        <ele>335</ele>
        <time>2021-05-30T09:07:55+02:00</time>
      </trkpt>
      <trkpt lat="45.39073" lon="4.71907">
        <ele>338</ele>
        <time>2021-05-30T09:08:00+02:00</time>
      </trkpt>
      <trkpt lat="45.3908" lon="4.7188">
        <ele>338</ele>
        <time>2021-05-30T09:08:05+02:00</time>
      </trkpt>
      <trkpt lat="45.39086" lon="4.71853">
        <ele>339</ele>
        <time>2021-05-30T09:08:10+02:00</time>
      </trkpt>
      <trkpt lat="45.39116" lon="4.71784">
        <ele>341</ele>
        <time>2021-05-30T09:08:15+02:00</time>
      </trkpt>
      <trkpt lat="45.39122" lon="4.71757">
        <ele>341</ele>
        <time>2021-05-30T09:08:20+02:00</time>
      </trkpt>
      <trkpt lat="45.39128" lon="4.71692">
        <ele>343</ele>
        <time>2021-05-30T09:08:25+02:00</time>
      </trkpt>
      <trkpt lat="45.39153" lon="4.7162">
        <ele>345</ele>
        <time>2021-05-30T09:08:30+02:00</time>
      </trkpt>
      <trkpt lat="45.39163" lon="4.71598">
        <ele>345</ele>
        <time>2021-05-30T09:08:35+02:00</time>
      </trkpt>
      <trkpt lat="45.39173" lon="4.71568">
        <ele>345</ele>
        <time>2021-05-30T09:08:40+02:00</time>
      </trkpt>
      <trkpt lat="45.39193" lon="4.71536">
        <ele>346</ele>
        <time>2021-05-30T09:08:45+02:00</time>
      </trkpt>
      <trkpt lat="45.39199" lon="4.71513">
        <ele>346</ele>
        <time>2021-05-30T09:08:50+02:00</time>
      </trkpt>
      <trkpt lat="45.39261" lon="4.7141">
        <ele>347</ele>
        <time>2021-05-30T09:08:55+02:00</time>
      </trkpt>
      <trkpt lat="45.39302" lon="4.71337">
        <ele>348</ele>
        <time>2021-05-30T09:09:00+02:00</time>
      </trkpt>
      <trkpt lat="45.39334" lon="4.71284">
        <ele>348</ele>
        <time>2021-05-30T09:09:05+02:00</time>
      </trkpt>
      <trkpt lat="45.39354" lon="4.7124">
        <ele>349</ele>
        <time>2021-05-30T09:09:10+02:00</time>
      </trkpt>
      <trkpt lat="45.39394" lon="4.71166">
        <ele>351</ele>
        <time>2021-05-30T09:09:15+02:00</time>
      </trkpt>
      <trkpt lat="45.3941" lon="4.71132">
        <ele>351</ele>
        <time>2021-05-30T09:09:20+02:00</time>
      </trkpt>
      <trkpt lat="45.39443" lon="4.71085">
        <ele>351</ele>
        <time>2021-05-30T09:09:25+02:00</time>
      </trkpt>
      <trkpt lat="45.39455" lon="4.71065">
        <ele>352</ele>
        <time>2021-05-30T09:09:30+02:00</time>
      </trkpt>
      <trkpt lat="45.39464" lon="4.7105">
        <ele>352</ele>
        <time>2021-05-30T09:09:35+02:00</time>
      </trkpt>
      <trkpt lat="45.3947" lon="4.7102">
        <ele>352</ele>
        <time>2021-05-30T09:09:40+02:00</time>
      </trkpt>
      <trkpt lat="45.39475" lon="4.71004">
        <ele>353</ele>
        <time>2021-05-30T09:09:45+02:00</time>
      </trkpt>
      <trkpt lat="45.39488" lon="4.70984">
        <ele>353</ele>
        <time>2021-05-30T09:09:50+02:00</time>
      </trkpt>
      <trkpt lat="45.39515" lon="4.70958">
        <ele>352</ele>
        <time>2021-05-30T09:09:55+02:00</time>
      </trkpt>
      <trkpt lat="45.39536" lon="4.70942">
        <ele>352</ele>
        <time>2021-05-30T09:10:00+02:00</time>
      </trkpt>
      <trkpt lat="45.39548" lon="4.70928">
        <ele>352</ele>
        <time>2021-05-30T09:10:05+02:00</time>
      </trkpt>
      <trkpt lat="45.39559" lon="4.70906">
        <ele>353</ele>
        <time>2021-05-30T09:10:10+02:00</time>
      </trkpt>
      <trkpt lat="45.39567" lon="4.70869">
        <ele>353</ele>
        <time>2021-05-30T09:10:15+02:00</time>
      </trkpt>
      <trkpt lat="45.39628" lon="4.70733">
        <ele>356</ele>
        <time>2021-05-30T09:10:20+02:00</time>
      </trkpt>
      <trkpt lat="45.39649" lon="4.70693">
        <ele>356</ele>
        <time>2021-05-30T09:10:25+02:00</time>
      </trkpt>
      <trkpt lat="45.39701" lon="4.70652">
        <ele>357</ele>
        <time>2021-05-30T09:10:30+02:00</time>
      </trkpt>
      <trkpt lat="45.39764" lon="4.70606">
        <ele>359</ele>
        <time>2021-05-30T09:10:35+02:00</time>
      </trkpt>
      <trkpt lat="45.39785" lon="4.70582">
        <ele>360</ele>
        <time>2021-05-30T09:10:40+02:00</time>
      </trkpt>
      <trkpt lat="45.39808" lon="4.7055">
        <ele>360</ele>
        <time>2021-05-30T09:10:45+02:00</time>
      </trkpt>
      <trkpt lat="45.39831" lon="4.70514">
        <ele>360</ele>
        <time>2021-05-30T09:10:50+02:00</time>
      </trkpt>
      <trkpt lat="45.39864" lon="4.70424">
        <ele>360</ele>
        <time>2021-05-30T09:10:55+02:00</time>
      </trkpt>
      <trkpt lat="45.3989" lon="4.70304">
        <ele>360</ele>
        <time>2021-05-30T09:11:00+02:00</time>
      </trkpt>
      <trkpt lat="45.39912" lon="4.70208">
        <ele>359</ele>
        <time>2021-05-30T09:11:05+02:00</time>
      </trkpt>
      <trkpt lat="45.39932" lon="4.70097">
        <ele>358</ele>
        <time>2021-05-30T09:11:10+02:00</time>
      </trkpt>
      <trkpt lat="45.39942" lon="4.70042">
        <ele>358</ele>
        <time>2021-05-30T09:11:15+02:00</time>
      </trkpt>
      <trkpt lat="45.39948" lon="4.7002">
        <ele>358</ele>
        <time>2021-05-30T09:11:20+02:00</time>
      </trkpt>
      <trkpt lat="45.39975" lon="4.69951">
        <ele>358</ele>
        <time>2021-05-30T09:11:25+02:00</time>
      </trkpt>
      <trkpt lat="45.39981" lon="4.69928">
        <ele>358</ele>
        <time>2021-05-30T09:11:30+02:00</time>
      </trkpt>
      <trkpt lat="45.39986" lon="4.69907">
        <ele>358</ele>
        <time>2021-05-30T09:11:35+02:00</time>
      </trkpt>
      <trkpt lat="45.39986" lon="4.69887">
        <ele>358</ele>
        <time>2021-05-30T09:11:40+02:00</time>
      </trkpt>
      <trkpt lat="45.39983" lon="4.69856">
        <ele>358</ele>
        <time>2021-05-30T09:11:45+02:00</time>
      </trkpt>
      <trkpt lat="45.39978" lon="4.69843">
        <ele>359</ele>
        <time>2021-05-30T09:11:50+02:00</time>
      </trkpt>
      <trkpt lat="45.39966" lon="4.69827">
        <ele>359</ele>
        <time>2021-05-30T09:11:55+02:00</time>
      </trkpt>
      <trkpt lat="45.39962" lon="4.69807">
        <ele>359</ele>
        <time>2021-05-30T09:12:00+02:00</time>
      </trkpt>
      <trkpt lat="45.3996" lon="4.69788">
        <ele>359</ele>
        <time>2021-05-30T09:12:05+02:00</time>
      </trkpt>
      <trkpt lat="45.39966" lon="4.69769">
        <ele>359</ele>
        <time>2021-05-30T09:12:10+02:00</time>
      </trkpt>
      <trkpt lat="45.39979" lon="4.69744">
        <ele>359</ele>
        <time>2021-05-30T09:12:15+02:00</time>
      </trkpt>
      <trkpt lat="45.39996" lon="4.697">
        <ele>362</ele>
        <time>2021-05-30T09:12:20+02:00</time>
      </trkpt>
      <trkpt lat="45.40026" lon="4.69606">
        <ele>368</ele>
        <time>2021-05-30T09:12:25+02:00</time>
      </trkpt>
      <trkpt lat="45.40049" lon="4.69537">
        <ele>372</ele>
        <time>2021-05-30T09:12:30+02:00</time>
      </trkpt>
      <trkpt lat="45.40057" lon="4.69506">
        <ele>374</ele>
        <time>2021-05-30T09:12:35+02:00</time>
      </trkpt>
      <trkpt lat="45.40081" lon="4.69384">
        <ele>384</ele>
        <time>2021-05-30T09:12:40+02:00</time>
      </trkpt>
      <trkpt lat="45.40072" lon="4.69369">
        <ele>385</ele>
        <time>2021-05-30T09:12:45+02:00</time>
      </trkpt>
      <trkpt lat="45.40058" lon="4.69284">
        <ele>391</ele>
        <time>2021-05-30T09:12:50+02:00</time>
      </trkpt>
      <trkpt lat="45.40025" lon="4.69175">
        <ele>397</ele>
        <time>2021-05-30T09:12:55+02:00</time>
      </trkpt>
      <trkpt lat="45.40017" lon="4.69168">
        <ele>398</ele>
        <time>2021-05-30T09:13:00+02:00</time>
      </trkpt>
      <trkpt lat="45.4" lon="4.69175">
        <ele>397</ele>
        <time>2021-05-30T09:13:05+02:00</time>
      </trkpt>
      <trkpt lat="45.39974" lon="4.69192">
        <ele>396</ele>
        <time>2021-05-30T09:13:10+02:00</time>
      </trkpt>
      <trkpt lat="45.39959" lon="4.69205">
        <ele>395</ele>
        <time>2021-05-30T09:13:15+02:00</time>
      </trkpt>
      <trkpt lat="45.39944" lon="4.69219">
        <ele>394</ele>
        <time>2021-05-30T09:13:20+02:00</time>
      </trkpt>
      <trkpt lat="45.39925" lon="4.69231">
        <ele>393</ele>
        <time>2021-05-30T09:13:25+02:00</time>
      </trkpt>
      <trkpt lat="45.39903" lon="4.69228">
        <ele>392</ele>
        <time>2021-05-30T09:13:30+02:00</time>
      </trkpt>
      <trkpt lat="45.39864" lon="4.69223">
        <ele>390</ele>
        <time>2021-05-30T09:13:35+02:00</time>
      </trkpt>
      <trkpt lat="45.39838" lon="4.69218">
        <ele>389</ele>
        <time>2021-05-30T09:13:40+02:00</time>
      </trkpt>
      <trkpt lat="45.39806" lon="4.69219">
        <ele>389</ele>
        <time>2021-05-30T09:13:45+02:00</time>
      </trkpt>
      <trkpt lat="45.39748" lon="4.69224">
        <ele>388</ele>
        <time>2021-05-30T09:13:50+02:00</time>
      </trkpt>
      <trkpt lat="45.397" lon="4.69236">
        <ele>387</ele>
        <time>2021-05-30T09:13:55+02:00</time>
      </trkpt>
      <trkpt lat="45.3968" lon="4.69242">
        <ele>386</ele>
        <time>2021-05-30T09:14:00+02:00</time>
      </trkpt>
      <trkpt lat="45.39639" lon="4.69262">
        <ele>386</ele>
        <time>2021-05-30T09:14:05+02:00</time>
      </trkpt>
      <trkpt lat="45.39625" lon="4.69272">
        <ele>386</ele>
        <time>2021-05-30T09:14:10+02:00</time>
      </trkpt>
      <trkpt lat="45.396" lon="4.69289">
        <ele>387</ele>
        <time>2021-05-30T09:14:15+02:00</time>
      </trkpt>
      <trkpt lat="45.39578" lon="4.69298">
        <ele>387</ele>
        <time>2021-05-30T09:14:20+02:00</time>
      </trkpt>
      <trkpt lat="45.39529" lon="4.6931">
        <ele>390</ele>
        <time>2021-05-30T09:14:25+02:00</time>
      </trkpt>
      <trkpt lat="45.39506" lon="4.69318">
        <ele>391</ele>
        <time>2021-05-30T09:14:30+02:00</time>
      </trkpt>
      <trkpt lat="45.39477" lon="4.69321">
        <ele>392</ele>
        <time>2021-05-30T09:14:35+02:00</time>
      </trkpt>
      <trkpt lat="45.3943" lon="4.69316">
        <ele>395</ele>
        <time>2021-05-30T09:14:40+02:00</time>
      </trkpt>
      <trkpt lat="45.3942" lon="4.69298">
        <ele>396</ele>
        <time>2021-05-30T09:14:45+02:00</time>
      </trkpt>
      <trkpt lat="45.39409" lon="4.6925">
        <ele>397</ele>
        <time>2021-05-30T09:14:50+02:00</time>
      </trkpt>
      <trkpt lat="45.39393" lon="4.69128">
        <ele>405</ele>
        <time>2021-05-30T09:14:55+02:00</time>
      </trkpt>
      <trkpt lat="45.39406" lon="4.69111">
        <ele>406</ele>
        <time>2021-05-30T09:15:00+02:00</time>
      </trkpt>
      <trkpt lat="45.39373" lon="4.69086">
        <ele>408</ele>
        <time>2021-05-30T09:15:05+02:00</time>
      </trkpt>
      <trkpt lat="45.39349" lon="4.69064">
        <ele>410</ele>
        <time>2021-05-30T09:15:10+02:00</time>
      </trkpt>
      <trkpt lat="45.39317" lon="4.69014">
        <ele>413</ele>
        <time>2021-05-30T09:15:15+02:00</time>
      </trkpt>
      <trkpt lat="45.39306" lon="4.68983">
        <ele>414</ele>
        <time>2021-05-30T09:15:20+02:00</time>
      </trkpt>
      <trkpt lat="45.39291" lon="4.68957">
        <ele>415</ele>
        <time>2021-05-30T09:15:25+02:00</time>
      </trkpt>
      <trkpt lat="45.39274" lon="4.68939">
        <ele>415</ele>
        <time>2021-05-30T09:15:30+02:00</time>
      </trkpt>
      <trkpt lat="45.39254" lon="4.68894">
        <ele>415</ele>
        <time>2021-05-30T09:15:35+02:00</time>
      </trkpt>
      <trkpt lat="45.39243" lon="4.68866">
        <ele>416</ele>
        <time>2021-05-30T09:15:40+02:00</time>
      </trkpt>
      <trkpt lat="45.39236" lon="4.68833">
        <ele>418</ele>
        <time>2021-05-30T09:15:45+02:00</time>
      </trkpt>
      <trkpt lat="45.39235" lon="4.68814">
        <ele>418</ele>
        <time>2021-05-30T09:15:50+02:00</time>
      </trkpt>
      <trkpt lat="45.39239" lon="4.68798">
        <ele>419</ele>
        <time>2021-05-30T09:15:55+02:00</time>
      </trkpt>
      <trkpt lat="45.39254" lon="4.68775">
        <ele>420</ele>
        <time>2021-05-30T09:16:00+02:00</time>
      </trkpt>
      <trkpt lat="45.39263" lon="4.6874">
        <ele>421</ele>
        <time>2021-05-30T09:16:05+02:00</time>
      </trkpt>
      <trkpt lat="45.3925" lon="4.68735">
        <ele>420</ele>
        <time>2021-05-30T09:16:10+02:00</time>
      </trkpt>
      <trkpt lat="45.3922" lon="4.6873">
        <ele>421</ele>
        <time>2021-05-30T09:16:15+02:00</time>
      </trkpt>
      <trkpt lat="45.392" lon="4.68697">
        <ele>422</ele>
        <time>2021-05-30T09:16:20+02:00</time>
      </trkpt>
      <trkpt lat="45.39209" lon="4.68681">
        <ele>423</ele>
        <time>2021-05-30T09:16:25+02:00</time>
      </trkpt>
      <trkpt lat="45.39194" lon="4.68622">
        <ele>426</ele>
        <time>2021-05-30T09:16:30+02:00</time>
      </trkpt>
      <trkpt lat="45.39189" lon="4.68593">
        <ele>427</ele>
        <time>2021-05-30T09:16:35+02:00</time>
      </trkpt>
      <trkpt lat="45.39187" lon="4.68554">
        <ele>429</ele>
        <time>2021-05-30T09:16:40+02:00</time>
      </trkpt>
      <trkpt lat="45.39187" lon="4.68529">
        <ele>430</ele>
        <time>2021-05-30T09:16:45+02:00</time>
      </trkpt>
      <trkpt lat="45.39191" lon="4.68503">
        <ele>431</ele>
        <time>2021-05-30T09:16:50+02:00</time>
      </trkpt>
      <trkpt lat="45.39196" lon="4.68475">
        <ele>432</ele>
        <time>2021-05-30T09:16:55+02:00</time>
      </trkpt>
      <trkpt lat="45.39194" lon="4.68455">
        <ele>432</ele>
        <time>2021-05-30T09:17:00+02:00</time>
      </trkpt>
      <trkpt lat="45.39189" lon="4.68424">
        <ele>433</ele>
        <time>2021-05-30T09:17:05+02:00</time>
      </trkpt>
      <trkpt lat="45.39187" lon="4.68394">
        <ele>435</ele>
        <time>2021-05-30T09:17:10+02:00</time>
      </trkpt>
      <trkpt lat="45.3919" lon="4.6838">
        <ele>436</ele>
        <time>2021-05-30T09:17:15+02:00</time>
      </trkpt>
      <trkpt lat="45.392" lon="4.68365">
        <ele>436</ele>
        <time>2021-05-30T09:17:20+02:00</time>
      </trkpt>
      <trkpt lat="45.39215" lon="4.68349">
        <ele>437</ele>
        <time>2021-05-30T09:17:25+02:00</time>
      </trkpt>
      <trkpt lat="45.39225" lon="4.68344">
        <ele>438</ele>
        <time>2021-05-30T09:17:30+02:00</time>
      </trkpt>
      <trkpt lat="45.39233" lon="4.68327">
        <ele>439</ele>
        <time>2021-05-30T09:17:35+02:00</time>
      </trkpt>
      <trkpt lat="45.39234" lon="4.68302">
        <ele>440</ele>
        <time>2021-05-30T09:17:40+02:00</time>
      </trkpt>
      <trkpt lat="45.39233" lon="4.6827">
        <ele>441</ele>
        <time>2021-05-30T09:17:45+02:00</time>
      </trkpt>
      <trkpt lat="45.39224" lon="4.68238">
        <ele>442</ele>
        <time>2021-05-30T09:17:50+02:00</time>
      </trkpt>
      <trkpt lat="45.39214" lon="4.68229">
        <ele>443</ele>
        <time>2021-05-30T09:17:55+02:00</time>
      </trkpt>
      <trkpt lat="45.39214" lon="4.68195">
        <ele>443</ele>
        <time>2021-05-30T09:18:00+02:00</time>
      </trkpt>
      <trkpt lat="45.39183" lon="4.68168">
        <ele>444</ele>
        <time>2021-05-30T09:18:05+02:00</time>
      </trkpt>
      <trkpt lat="45.39171" lon="4.68166">
        <ele>444</ele>
        <time>2021-05-30T09:18:10+02:00</time>
      </trkpt>
      <trkpt lat="45.39149" lon="4.68178">
        <ele>444</ele>
        <time>2021-05-30T09:18:15+02:00</time>
      </trkpt>
      <trkpt lat="45.39128" lon="4.68189">
        <ele>444</ele>
        <time>2021-05-30T09:18:20+02:00</time>
      </trkpt>
      <trkpt lat="45.39126" lon="4.68165">
        <ele>445</ele>
        <time>2021-05-30T09:18:25+02:00</time>
      </trkpt>
      <trkpt lat="45.39117" lon="4.68128">
        <ele>446</ele>
        <time>2021-05-30T09:18:30+02:00</time>
      </trkpt>
      <trkpt lat="45.39106" lon="4.68096">
        <ele>447</ele>
        <time>2021-05-30T09:18:35+02:00</time>
      </trkpt>
      <trkpt lat="45.39092" lon="4.68072">
        <ele>449</ele>
        <time>2021-05-30T09:18:40+02:00</time>
      </trkpt>
      <trkpt lat="45.39056" lon="4.68004">
        <ele>457</ele>
        <time>2021-05-30T09:18:45+02:00</time>
      </trkpt>
      <trkpt lat="45.39042" lon="4.67991">
        <ele>458</ele>
        <time>2021-05-30T09:18:50+02:00</time>
      </trkpt>
      <trkpt lat="45.39037" lon="4.6798">
        <ele>459</ele>
        <time>2021-05-30T09:18:55+02:00</time>
      </trkpt>
      <trkpt lat="45.39001" lon="4.67916">
        <ele>465</ele>
        <time>2021-05-30T09:19:00+02:00</time>
      </trkpt>
      <trkpt lat="45.38998" lon="4.679">
        <ele>466</ele>
        <time>2021-05-30T09:19:05+02:00</time>
      </trkpt>
      <trkpt lat="45.38993" lon="4.67846">
        <ele>469</ele>
        <time>2021-05-30T09:19:10+02:00</time>
      </trkpt>
      <trkpt lat="45.38985" lon="4.67837">
        <ele>471</ele>
        <time>2021-05-30T09:19:15+02:00</time>
      </trkpt>
      <trkpt lat="45.39018" lon="4.67753">
        <ele>472</ele>
        <time>2021-05-30T09:19:20+02:00</time>
      </trkpt>
      <trkpt lat="45.38987" lon="4.67677">
        <ele>477</ele>
        <time>2021-05-30T09:19:25+02:00</time>
      </trkpt>
      <trkpt lat="45.38949" lon="4.67569">
        <ele>481</ele>
        <time>2021-05-30T09:19:30+02:00</time>
      </trkpt>
      <trkpt lat="45.38934" lon="4.67548">
        <ele>483</ele>
        <time>2021-05-30T09:19:35+02:00</time>
      </trkpt>
      <trkpt lat="45.38921" lon="4.67502">
        <ele>486</ele>
        <time>2021-05-30T09:19:40+02:00</time>
      </trkpt>
      <trkpt lat="45.38908" lon="4.6746">
        <ele>488</ele>
        <time>2021-05-30T09:19:45+02:00</time>
      </trkpt>
      <trkpt lat="45.38889" lon="4.67414">
        <ele>490</ele>
        <time>2021-05-30T09:19:50+02:00</time>
      </trkpt>
      <trkpt lat="45.38874" lon="4.67351">
        <ele>492</ele>
        <time>2021-05-30T09:19:55+02:00</time>
      </trkpt>
      <trkpt lat="45.38861" lon="4.67285">
        <ele>495</ele>
        <time>2021-05-30T09:20:00+02:00</time>
      </trkpt>
      <trkpt lat="45.38841" lon="4.67224">
        <ele>500</ele>
        <time>2021-05-30T09:20:05+02:00</time>
      </trkpt>
      <trkpt lat="45.38856" lon="4.67201">
        <ele>500</ele>
        <time>2021-05-30T09:20:10+02:00</time>
      </trkpt>
      <trkpt lat="45.38844" lon="4.67179">
        <ele>502</ele>
        <time>2021-05-30T09:20:15+02:00</time>
      </trkpt>
      <trkpt lat="45.3883" lon="4.67183">
        <ele>503</ele>
        <time>2021-05-30T09:20:20+02:00</time>
      </trkpt>
      <trkpt lat="45.38807" lon="4.67182">
        <ele>504</ele>
        <time>2021-05-30T09:20:25+02:00</time>
      </trkpt>
      <trkpt lat="45.38792" lon="4.67174">
        <ele>506</ele>
        <time>2021-05-30T09:20:30+02:00</time>
      </trkpt>
      <trkpt lat="45.38783" lon="4.67176">
        <ele>506</ele>
        <time>2021-05-30T09:20:35+02:00</time>
      </trkpt>
      <trkpt lat="45.38742" lon="4.67196">
        <ele>507</ele>
        <time>2021-05-30T09:20:40+02:00</time>
      </trkpt>
      <trkpt lat="45.38721" lon="4.67211">
        <ele>508</ele>
        <time>2021-05-30T09:20:45+02:00</time>
      </trkpt>
      <trkpt lat="45.38708" lon="4.67229">
        <ele>509</ele>
        <time>2021-05-30T09:20:50+02:00</time>
      </trkpt>
      <trkpt lat="45.38708" lon="4.67252">
        <ele>509</ele>
        <time>2021-05-30T09:20:55+02:00</time>
      </trkpt>
      <trkpt lat="45.38723" lon="4.67341">
        <ele>506</ele>
        <time>2021-05-30T09:21:00+02:00</time>
      </trkpt>
      <trkpt lat="45.38716" lon="4.67371">
        <ele>506</ele>
        <time>2021-05-30T09:21:05+02:00</time>
      </trkpt>
      <trkpt lat="45.38703" lon="4.67417">
        <ele>508</ele>
        <time>2021-05-30T09:21:10+02:00</time>
      </trkpt>
      <trkpt lat="45.38689" lon="4.67465">
        <ele>508</ele>
        <time>2021-05-30T09:21:15+02:00</time>
      </trkpt>
      <trkpt lat="45.38674" lon="4.67514">
        <ele>509</ele>
        <time>2021-05-30T09:21:20+02:00</time>
      </trkpt>
      <trkpt lat="45.38659" lon="4.67562">
        <ele>511</ele>
        <time>2021-05-30T09:21:25+02:00</time>
      </trkpt>
      <trkpt lat="45.38646" lon="4.6759">
        <ele>513</ele>
        <time>2021-05-30T09:21:30+02:00</time>
      </trkpt>
      <trkpt lat="45.38639" lon="4.67604">
        <ele>514</ele>
        <time>2021-05-30T09:21:35+02:00</time>
      </trkpt>
      <trkpt lat="45.38634" lon="4.67627">
        <ele>514</ele>
        <time>2021-05-30T09:21:40+02:00</time>
      </trkpt>
      <trkpt lat="45.38618" lon="4.67644">
        <ele>516</ele>
        <time>2021-05-30T09:21:45+02:00</time>
      </trkpt>
      <trkpt lat="45.38628" lon="4.67622">
        <ele>515</ele>
        <time>2021-05-30T09:21:50+02:00</time>
      </trkpt>
      <trkpt lat="45.3862" lon="4.67607">
        <ele>516</ele>
        <time>2021-05-30T09:21:55+02:00</time>
      </trkpt>
      <trkpt lat="45.38608" lon="4.67601">
        <ele>517</ele>
        <time>2021-05-30T09:22:00+02:00</time>
      </trkpt>
      <trkpt lat="45.38591" lon="4.67616">
        <ele>519</ele>
        <time>2021-05-30T09:22:05+02:00</time>
      </trkpt>
      <trkpt lat="45.38563" lon="4.67636">
        <ele>518</ele>
        <time>2021-05-30T09:22:10+02:00</time>
      </trkpt>
      <trkpt lat="45.38544" lon="4.67647">
        <ele>517</ele>
        <time>2021-05-30T09:22:15+02:00</time>
      </trkpt>
      <trkpt lat="45.38522" lon="4.67655">
        <ele>516</ele>
        <time>2021-05-30T09:22:20+02:00</time>
      </trkpt>
      <trkpt lat="45.38486" lon="4.67661">
        <ele>512</ele>
        <time>2021-05-30T09:22:25+02:00</time>
      </trkpt>
      <trkpt lat="45.38461" lon="4.67662">
        <ele>508</ele>
        <time>2021-05-30T09:22:30+02:00</time>
      </trkpt>
      <trkpt lat="45.38435" lon="4.6766">
        <ele>505</ele>
        <time>2021-05-30T09:22:35+02:00</time>
      </trkpt>
      <trkpt lat="45.38403" lon="4.67662">
        <ele>500</ele>
        <time>2021-05-30T09:22:40+02:00</time>
      </trkpt>
      <trkpt lat="45.38406" lon="4.67694">
        <ele>495</ele>
        <time>2021-05-30T09:22:45+02:00</time>
      </trkpt>
      <trkpt lat="45.38409" lon="4.67731">
        <ele>490</ele>
        <time>2021-05-30T09:22:50+02:00</time>
      </trkpt>
      <trkpt lat="45.38392" lon="4.67767">
        <ele>484</ele>
        <time>2021-05-30T09:22:55+02:00</time>
      </trkpt>
      <trkpt lat="45.38384" lon="4.67778">
        <ele>482</ele>
        <time>2021-05-30T09:23:00+02:00</time>
      </trkpt>
      <trkpt lat="45.38417" lon="4.67814">
        <ele>481</ele>
        <time>2021-05-30T09:23:05+02:00</time>
      </trkpt>
      <trkpt lat="45.38437" lon="4.67838">
        <ele>480</ele>
        <time>2021-05-30T09:23:10+02:00</time>
      </trkpt>
      <trkpt lat="45.38455" lon="4.67853">
        <ele>479</ele>
        <time>2021-05-30T09:23:15+02:00</time>
      </trkpt>
      <trkpt lat="45.38485" lon="4.67878">
        <ele>477</ele>
        <time>2021-05-30T09:23:20+02:00</time>
      </trkpt>
      <trkpt lat="45.38526" lon="4.679">
        <ele>476</ele>
        <time>2021-05-30T09:23:25+02:00</time>
      </trkpt>
      <trkpt lat="45.38574" lon="4.67937">
        <ele>471</ele>
        <time>2021-05-30T09:23:30+02:00</time>
      </trkpt>
      <trkpt lat="45.38592" lon="4.67949">
        <ele>471</ele>
        <time>2021-05-30T09:23:35+02:00</time>
      </trkpt>
      <trkpt lat="45.38619" lon="4.67954">
        <ele>472</ele>
        <time>2021-05-30T09:23:40+02:00</time>
      </trkpt>
      <trkpt lat="45.3866" lon="4.67984">
        <ele>471</ele>
        <time>2021-05-30T09:23:45+02:00</time>
      </trkpt>
      <trkpt lat="45.38678" lon="4.67988">
        <ele>471</ele>
        <time>2021-05-30T09:23:50+02:00</time>
      </trkpt>
      <trkpt lat="45.38694" lon="4.67987">
        <ele>473</ele>
        <time>2021-05-30T09:23:55+02:00</time>
      </trkpt>
      <trkpt lat="45.38703" lon="4.67984">
        <ele>474</ele>
        <time>2021-05-30T09:24:00+02:00</time>
      </trkpt>
      <trkpt lat="45.38722" lon="4.67989">
        <ele>474</ele>
        <time>2021-05-30T09:24:05+02:00</time>
      </trkpt>
      <trkpt lat="45.38736" lon="4.67987">
        <ele>475</ele>
        <time>2021-05-30T09:24:10+02:00</time>
      </trkpt>
      <trkpt lat="45.38754" lon="4.6799">
        <ele>476</ele>
        <time>2021-05-30T09:24:15+02:00</time>
      </trkpt>
      <trkpt lat="45.3877" lon="4.68">
        <ele>475</ele>
        <time>2021-05-30T09:24:20+02:00</time>
      </trkpt>
      <trkpt lat="45.38797" lon="4.68029">
        <ele>472</ele>
        <time>2021-05-30T09:24:25+02:00</time>
      </trkpt>
      <trkpt lat="45.38803" lon="4.68049">
        <ele>469</ele>
        <time>2021-05-30T09:24:30+02:00</time>
      </trkpt>
      <trkpt lat="45.38806" lon="4.68077">
        <ele>465</ele>
        <time>2021-05-30T09:24:35+02:00</time>
      </trkpt>
      <trkpt lat="45.38806" lon="4.68097">
        <ele>463</ele>
        <time>2021-05-30T09:24:40+02:00</time>
      </trkpt>
      <trkpt lat="45.38811" lon="4.68113">
        <ele>461</ele>
        <time>2021-05-30T09:24:45+02:00</time>
      </trkpt>
      <trkpt lat="45.38817" lon="4.68126">
        <ele>460</ele>
        <time>2021-05-30T09:24:50+02:00</time>
      </trkpt>
      <trkpt lat="45.38828" lon="4.68141">
        <ele>459</ele>
        <time>2021-05-30T09:24:55+02:00</time>
      </trkpt>
      <trkpt lat="45.3884" lon="4.68151">
        <ele>458</ele>
        <time>2021-05-30T09:25:00+02:00</time>
      </trkpt>
      <trkpt lat="45.38866" lon="4.68172">
        <ele>455</ele>
        <time>2021-05-30T09:25:05+02:00</time>
      </trkpt>
      <trkpt lat="45.38876" lon="4.68186">
        <ele>454</ele>
        <time>2021-05-30T09:25:10+02:00</time>
      </trkpt>
      <trkpt lat="45.38916" lon="4.68183">
        <ele>453</ele>
        <time>2021-05-30T09:25:15+02:00</time>
      </trkpt>
      <trkpt lat="45.38907" lon="4.68236">
        <ele>449</ele>
        <time>2021-05-30T09:25:20+02:00</time>
      </trkpt>
      <trkpt lat="45.38904" lon="4.68262">
        <ele>447</ele>
        <time>2021-05-30T09:25:25+02:00</time>
      </trkpt>
      <trkpt lat="45.38904" lon="4.68291">
        <ele>446</ele>
        <time>2021-05-30T09:25:30+02:00</time>
      </trkpt>
      <trkpt lat="45.38906" lon="4.68352">
        <ele>443</ele>
        <time>2021-05-30T09:25:35+02:00</time>
      </trkpt>
      <trkpt lat="45.38907" lon="4.68398">
        <ele>440</ele>
        <time>2021-05-30T09:25:40+02:00</time>
      </trkpt>
      <trkpt lat="45.38884" lon="4.68547">
        <ele>431</ele>
        <time>2021-05-30T09:25:45+02:00</time>
      </trkpt>
      <trkpt lat="45.3884" lon="4.68663">
        <ele>426</ele>
        <time>2021-05-30T09:25:50+02:00</time>
      </trkpt>
      <trkpt lat="45.38829" lon="4.68672">
        <ele>426</ele>
        <time>2021-05-30T09:25:55+02:00</time>
      </trkpt>
      <trkpt lat="45.3882" lon="4.68684">
        <ele>425</ele>
        <time>2021-05-30T09:26:00+02:00</time>
      </trkpt>
      <trkpt lat="45.3882" lon="4.68698">
        <ele>425</ele>
        <time>2021-05-30T09:26:05+02:00</time>
      </trkpt>
      <trkpt lat="45.38825" lon="4.68713">
        <ele>424</ele>
        <time>2021-05-30T09:26:10+02:00</time>
      </trkpt>
      <trkpt lat="45.38824" lon="4.68736">
        <ele>423</ele>
        <time>2021-05-30T09:26:15+02:00</time>
      </trkpt>
      <trkpt lat="45.38822" lon="4.6875">
        <ele>423</ele>
        <time>2021-05-30T09:26:20+02:00</time>
      </trkpt>
      <trkpt lat="45.38788" lon="4.68749">
        <ele>421</ele>
        <time>2021-05-30T09:26:25+02:00</time>
      </trkpt>
      <trkpt lat="45.38749" lon="4.68755">
        <ele>420</ele>
        <time>2021-05-30T09:26:30+02:00</time>
      </trkpt>
      <trkpt lat="45.38696" lon="4.68735">
        <ele>418</ele>
        <time>2021-05-30T09:26:35+02:00</time>
      </trkpt>
      <trkpt lat="45.3863" lon="4.68705">
        <ele>416</ele>
        <time>2021-05-30T09:26:40+02:00</time>
      </trkpt>
      <trkpt lat="45.38587" lon="4.68696">
        <ele>414</ele>
        <time>2021-05-30T09:26:45+02:00</time>
      </trkpt>
      <trkpt lat="45.3856" lon="4.68694">
        <ele>414</ele>
        <time>2021-05-30T09:26:50+02:00</time>
      </trkpt>
      <trkpt lat="45.38509" lon="4.68691">
        <ele>414</ele>
        <time>2021-05-30T09:26:55+02:00</time>
      </trkpt>
      <trkpt lat="45.38477" lon="4.6869">
        <ele>412</ele>
        <time>2021-05-30T09:27:00+02:00</time>
      </trkpt>
      <trkpt lat="45.38449" lon="4.68778">
        <ele>405</ele>
        <time>2021-05-30T09:27:05+02:00</time>
      </trkpt>
      <trkpt lat="45.38418" lon="4.68813">
        <ele>401</ele>
        <time>2021-05-30T09:27:10+02:00</time>
      </trkpt>
      <trkpt lat="45.38411" lon="4.68835">
        <ele>399</ele>
        <time>2021-05-30T09:27:15+02:00</time>
      </trkpt>
      <trkpt lat="45.38398" lon="4.68871">
        <ele>395</ele>
        <time>2021-05-30T09:27:20+02:00</time>
      </trkpt>
      <trkpt lat="45.38373" lon="4.68913">
        <ele>389</ele>
        <time>2021-05-30T09:27:25+02:00</time>
      </trkpt>
      <trkpt lat="45.3835" lon="4.68924">
        <ele>387</ele>
        <time>2021-05-30T09:27:30+02:00</time>
      </trkpt>
      <trkpt lat="45.38338" lon="4.68939">
        <ele>385</ele>
        <time>2021-05-30T09:27:35+02:00</time>
      </trkpt>
      <trkpt lat="45.38394" lon="4.69012">
        <ele>384</ele>
        <time>2021-05-30T09:27:40+02:00</time>
      </trkpt>
      <trkpt lat="45.38403" lon="4.69034">
        <ele>384</ele>
        <time>2021-05-30T09:27:45+02:00</time>
      </trkpt>
      <trkpt lat="45.38419" lon="4.69082">
        <ele>383</ele>
        <time>2021-05-30T09:27:50+02:00</time>
      </trkpt>
      <trkpt lat="45.38424" lon="4.69114">
        <ele>383</ele>
        <time>2021-05-30T09:27:55+02:00</time>
      </trkpt>
      <trkpt lat="45.38432" lon="4.69145">
        <ele>383</ele>
        <time>2021-05-30T09:28:00+02:00</time>
      </trkpt>
      <trkpt lat="45.38453" lon="4.69194">
        <ele>383</ele>
        <time>2021-05-30T09:28:05+02:00</time>
      </trkpt>
      <trkpt lat="45.3847" lon="4.69239">
        <ele>383</ele>
        <time>2021-05-30T09:28:10+02:00</time>
      </trkpt>
      <trkpt lat="45.38525" lon="4.69307">
        <ele>385</ele>
        <time>2021-05-30T09:28:15+02:00</time>
      </trkpt>
      <trkpt lat="45.38543" lon="4.69324">
        <ele>385</ele>
        <time>2021-05-30T09:28:20+02:00</time>
      </trkpt>
      <trkpt lat="45.3863" lon="4.69448">
        <ele>388</ele>
        <time>2021-05-30T09:28:25+02:00</time>
      </trkpt>
      <trkpt lat="45.38624" lon="4.69521">
        <ele>387</ele>
        <time>2021-05-30T09:28:30+02:00</time>
      </trkpt>
      <trkpt lat="45.38647" lon="4.69527">
        <ele>387</ele>
        <time>2021-05-30T09:28:35+02:00</time>
      </trkpt>
      <trkpt lat="45.38654" lon="4.69557">
        <ele>386</ele>
        <time>2021-05-30T09:28:40+02:00</time>
      </trkpt>
      <trkpt lat="45.38656" lon="4.69579">
        <ele>386</ele>
        <time>2021-05-30T09:28:45+02:00</time>
      </trkpt>
      <trkpt lat="45.38654" lon="4.69605">
        <ele>385</ele>
        <time>2021-05-30T09:28:50+02:00</time>
      </trkpt>
      <trkpt lat="45.38649" lon="4.69628">
        <ele>384</ele>
        <time>2021-05-30T09:28:55+02:00</time>
      </trkpt>
      <trkpt lat="45.38648" lon="4.69703">
        <ele>379</ele>
        <time>2021-05-30T09:29:00+02:00</time>
      </trkpt>
      <trkpt lat="45.38647" lon="4.69721">
        <ele>378</ele>
        <time>2021-05-30T09:29:05+02:00</time>
      </trkpt>
      <trkpt lat="45.38633" lon="4.69769">
        <ele>375</ele>
        <time>2021-05-30T09:29:10+02:00</time>
      </trkpt>
      <trkpt lat="45.38613" lon="4.69827">
        <ele>371</ele>
        <time>2021-05-30T09:29:15+02:00</time>
      </trkpt>
      <trkpt lat="45.38603" lon="4.69883">
        <ele>369</ele>
        <time>2021-05-30T09:29:20+02:00</time>
      </trkpt>
      <trkpt lat="45.38598" lon="4.69911">
        <ele>367</ele>
        <time>2021-05-30T09:29:25+02:00</time>
      </trkpt>
      <trkpt lat="45.38582" lon="4.69977">
        <ele>366</ele>
        <time>2021-05-30T09:29:30+02:00</time>
      </trkpt>
      <trkpt lat="45.38579" lon="4.70002">
        <ele>365</ele>
        <time>2021-05-30T09:29:35+02:00</time>
      </trkpt>
      <trkpt lat="45.38569" lon="4.70053">
        <ele>363</ele>
        <time>2021-05-30T09:29:40+02:00</time>
      </trkpt>
      <trkpt lat="45.38551" lon="4.70103">
        <ele>362</ele>
        <time>2021-05-30T09:29:45+02:00</time>
      </trkpt>
      <trkpt lat="45.38564" lon="4.70108">
        <ele>362</ele>
        <time>2021-05-30T09:29:50+02:00</time>
      </trkpt>
      <trkpt lat="45.38589" lon="4.70137">
        <ele>360</ele>
        <time>2021-05-30T09:29:55+02:00</time>
      </trkpt>
      <trkpt lat="45.38616" lon="4.70159">
        <ele>359</ele>
        <time>2021-05-30T09:30:00+02:00</time>
      </trkpt>
      <trkpt lat="45.38671" lon="4.7019">
        <ele>357</ele>
        <time>2021-05-30T09:30:05+02:00</time>
      </trkpt>
      <trkpt lat="45.38673" lon="4.70209">
        <ele>357</ele>
        <time>2021-05-30T09:30:10+02:00</time>
      </trkpt>
      <trkpt lat="45.38695" lon="4.70263">
        <ele>353</ele>
        <time>2021-05-30T09:30:15+02:00</time>
      </trkpt>
      <trkpt lat="45.387" lon="4.70278">
        <ele>351</ele>
        <time>2021-05-30T09:30:20+02:00</time>
      </trkpt>
      <trkpt lat="45.38704" lon="4.70296">
        <ele>349</ele>
        <time>2021-05-30T09:30:25+02:00</time>
      </trkpt>
      <trkpt lat="45.3872" lon="4.70302">
        <ele>347</ele>
        <time>2021-05-30T09:30:30+02:00</time>
      </trkpt>
      <trkpt lat="45.38727" lon="4.70317">
        <ele>345</ele>
        <time>2021-05-30T09:30:35+02:00</time>
      </trkpt>
      <trkpt lat="45.38762" lon="4.70375">
        <ele>337</ele>
        <time>2021-05-30T09:30:40+02:00</time>
      </trkpt>
      <trkpt lat="45.3878" lon="4.70407">
        <ele>332</ele>
        <time>2021-05-30T09:30:45+02:00</time>
      </trkpt>
      <trkpt lat="45.38795" lon="4.70454">
        <ele>327</ele>
        <time>2021-05-30T09:30:50+02:00</time>
      </trkpt>
      <trkpt lat="45.3882" lon="4.70487">
        <ele>323</ele>
        <time>2021-05-30T09:30:55+02:00</time>
      </trkpt>
      <trkpt lat="45.38823" lon="4.70502">
        <ele>323</ele>
        <time>2021-05-30T09:31:00+02:00</time>
      </trkpt>
      <trkpt lat="45.38825" lon="4.70527">
        <ele>324</ele>
        <time>2021-05-30T09:31:05+02:00</time>
      </trkpt>
      <trkpt lat="45.38799" lon="4.70562">
        <ele>323</ele>
        <time>2021-05-30T09:31:10+02:00</time>
      </trkpt>
      <trkpt lat="45.38775" lon="4.70595">
        <ele>320</ele>
        <time>2021-05-30T09:31:15+02:00</time>
      </trkpt>
      <trkpt lat="45.38765" lon="4.70607">
        <ele>319</ele>
        <time>2021-05-30T09:31:20+02:00</time>
      </trkpt>
      <trkpt lat="45.38751" lon="4.70616">
        <ele>317</ele>
        <time>2021-05-30T09:31:25+02:00</time>
      </trkpt>
      <trkpt lat="45.38743" lon="4.70626">
        <ele>318</ele>
        <time>2021-05-30T09:31:30+02:00</time>
      </trkpt>
      <trkpt lat="45.38726" lon="4.70667">
        <ele>320</ele>
        <time>2021-05-30T09:31:35+02:00</time>
      </trkpt>
      <trkpt lat="45.38712" lon="4.70717">
        <ele>320</ele>
        <time>2021-05-30T09:31:40+02:00</time>
      </trkpt>
      <trkpt lat="45.38708" lon="4.70743">
        <ele>320</ele>
        <time>2021-05-30T09:31:45+02:00</time>
      </trkpt>
      <trkpt lat="45.38708" lon="4.70767">
        <ele>319</ele>
        <time>2021-05-30T09:31:50+02:00</time>
      </trkpt>
      <trkpt lat="45.3871" lon="4.70813">
        <ele>319</ele>
        <time>2021-05-30T09:31:55+02:00</time>
      </trkpt>
      <trkpt lat="45.38707" lon="4.70823">
        <ele>319</ele>
        <time>2021-05-30T09:32:00+02:00</time>
      </trkpt>
      <trkpt lat="45.38708" lon="4.70847">
        <ele>319</ele>
        <time>2021-05-30T09:32:05+02:00</time>
      </trkpt>
      <trkpt lat="45.38704" lon="4.70873">
        <ele>319</ele>
        <time>2021-05-30T09:32:10+02:00</time>
      </trkpt>
      <trkpt lat="45.38698" lon="4.709">
        <ele>317</ele>
        <time>2021-05-30T09:32:15+02:00</time>
      </trkpt>
      <trkpt lat="45.38687" lon="4.70933">
        <ele>316</ele>
        <time>2021-05-30T09:32:20+02:00</time>
      </trkpt>
      <trkpt lat="45.3868" lon="4.70953">
        <ele>315</ele>
        <time>2021-05-30T09:32:25+02:00</time>
      </trkpt>
      <trkpt lat="45.3867" lon="4.70976">
        <ele>312</ele>
        <time>2021-05-30T09:32:30+02:00</time>
      </trkpt>
      <trkpt lat="45.38644" lon="4.71014">
        <ele>314</ele>
        <time>2021-05-30T09:32:35+02:00</time>
      </trkpt>
      <trkpt lat="45.38622" lon="4.71056">
        <ele>313</ele>
        <time>2021-05-30T09:32:40+02:00</time>
      </trkpt>
      <trkpt lat="45.38615" lon="4.71064">
        <ele>312</ele>
        <time>2021-05-30T09:32:45+02:00</time>
      </trkpt>
      <trkpt lat="45.38618" lon="4.71094">
        <ele>310</ele>
        <time>2021-05-30T09:32:50+02:00</time>
      </trkpt>
      <trkpt lat="45.38596" lon="4.71098">
        <ele>309</ele>
        <time>2021-05-30T09:32:55+02:00</time>
      </trkpt>
      <trkpt lat="45.386" lon="4.71114">
        <ele>308</ele>
        <time>2021-05-30T09:33:00+02:00</time>
      </trkpt>
      <trkpt lat="45.38606" lon="4.71141">
        <ele>307</ele>
        <time>2021-05-30T09:33:05+02:00</time>
      </trkpt>
      <trkpt lat="45.38624" lon="4.71192">
        <ele>305</ele>
        <time>2021-05-30T09:33:10+02:00</time>
      </trkpt>
      <trkpt lat="45.38666" lon="4.71241">
        <ele>298</ele>
        <time>2021-05-30T09:33:15+02:00</time>
      </trkpt>
      <trkpt lat="45.38678" lon="4.71273">
        <ele>299</ele>
        <time>2021-05-30T09:33:20+02:00</time>
      </trkpt>
      <trkpt lat="45.3868" lon="4.71296">
        <ele>299</ele>
        <time>2021-05-30T09:33:25+02:00</time>
      </trkpt>
      <trkpt lat="45.38667" lon="4.71312">
        <ele>294</ele>
        <time>2021-05-30T09:33:30+02:00</time>
      </trkpt>
      <trkpt lat="45.3865" lon="4.71322">
        <ele>297</ele>
        <time>2021-05-30T09:33:35+02:00</time>
      </trkpt>
      <trkpt lat="45.38634" lon="4.7134">
        <ele>299</ele>
        <time>2021-05-30T09:33:40+02:00</time>
      </trkpt>
      <trkpt lat="45.38624" lon="4.71359">
        <ele>300</ele>
        <time>2021-05-30T09:33:45+02:00</time>
      </trkpt>
      <trkpt lat="45.38621" lon="4.71383">
        <ele>299</ele>
        <time>2021-05-30T09:33:50+02:00</time>
      </trkpt>
      <trkpt lat="45.38629" lon="4.71446">
        <ele>294</ele>
        <time>2021-05-30T09:33:55+02:00</time>
      </trkpt>
      <trkpt lat="45.38627" lon="4.71472">
        <ele>293</ele>
        <time>2021-05-30T09:34:00+02:00</time>
      </trkpt>
      <trkpt lat="45.38621" lon="4.71493">
        <ele>293</ele>
        <time>2021-05-30T09:34:05+02:00</time>
      </trkpt>
      <trkpt lat="45.3861" lon="4.71512">
        <ele>293</ele>
        <time>2021-05-30T09:34:10+02:00</time>
      </trkpt>
      <trkpt lat="45.38594" lon="4.71529">
        <ele>292</ele>
        <time>2021-05-30T09:34:15+02:00</time>
      </trkpt>
      <trkpt lat="45.38579" lon="4.71543">
        <ele>292</ele>
        <time>2021-05-30T09:34:20+02:00</time>
      </trkpt>
      <trkpt lat="45.38565" lon="4.71559">
        <ele>295</ele>
        <time>2021-05-30T09:34:25+02:00</time>
      </trkpt>
      <trkpt lat="45.3856" lon="4.71568">
        <ele>295</ele>
        <time>2021-05-30T09:34:30+02:00</time>
      </trkpt>
      <trkpt lat="45.38553" lon="4.71587">
        <ele>296</ele>
        <time>2021-05-30T09:34:35+02:00</time>
      </trkpt>
      <trkpt lat="45.38551" lon="4.71603">
        <ele>296</ele>
        <time>2021-05-30T09:34:40+02:00</time>
      </trkpt>
      <trkpt lat="45.38551" lon="4.7163">
        <ele>294</ele>
        <time>2021-05-30T09:34:45+02:00</time>
      </trkpt>
      <trkpt lat="45.38563" lon="4.71707">
        <ele>288</ele>
        <time>2021-05-30T09:34:50+02:00</time>
      </trkpt>
      <trkpt lat="45.3857" lon="4.71737">
        <ele>285</ele>
        <time>2021-05-30T09:34:55+02:00</time>
      </trkpt>
      <trkpt lat="45.38575" lon="4.71765">
        <ele>282</ele>
        <time>2021-05-30T09:35:00+02:00</time>
      </trkpt>
      <trkpt lat="45.38575" lon="4.71779">
        <ele>282</ele>
        <time>2021-05-30T09:35:05+02:00</time>
      </trkpt>
      <trkpt lat="45.38566" lon="4.71808">
        <ele>284</ele>
        <time>2021-05-30T09:35:10+02:00</time>
      </trkpt>
      <trkpt lat="45.38547" lon="4.71871">
        <ele>286</ele>
        <time>2021-05-30T09:35:15+02:00</time>
      </trkpt>
      <trkpt lat="45.38545" lon="4.71909">
        <ele>283</ele>
        <time>2021-05-30T09:35:20+02:00</time>
      </trkpt>
      <trkpt lat="45.38543" lon="4.71935">
        <ele>282</ele>
        <time>2021-05-30T09:35:25+02:00</time>
      </trkpt>
      <trkpt lat="45.38538" lon="4.71962">
        <ele>282</ele>
        <time>2021-05-30T09:35:30+02:00</time>
      </trkpt>
      <trkpt lat="45.38529" lon="4.72004">
        <ele>281</ele>
        <time>2021-05-30T09:35:35+02:00</time>
      </trkpt>
      <trkpt lat="45.3853" lon="4.72032">
        <ele>278</ele>
        <time>2021-05-30T09:35:40+02:00</time>
      </trkpt>
      <trkpt lat="45.38525" lon="4.72064">
        <ele>275</ele>
        <time>2021-05-30T09:35:45+02:00</time>
      </trkpt>
      <trkpt lat="45.38511" lon="4.72168">
        <ele>267</ele>
        <time>2021-05-30T09:35:50+02:00</time>
      </trkpt>
      <trkpt lat="45.38522" lon="4.72183">
        <ele>266</ele>
        <time>2021-05-30T09:35:55+02:00</time>
      </trkpt>
      <trkpt lat="45.38531" lon="4.72229">
        <ele>265</ele>
        <time>2021-05-30T09:36:00+02:00</time>
      </trkpt>
      <trkpt lat="45.38536" lon="4.72263">
        <ele>264</ele>
        <time>2021-05-30T09:36:05+02:00</time>
      </trkpt>
      <trkpt lat="45.38584" lon="4.72298">
        <ele>257</ele>
        <time>2021-05-30T09:36:10+02:00</time>
      </trkpt>
      <trkpt lat="45.38581" lon="4.72333">
        <ele>255</ele>
        <time>2021-05-30T09:36:15+02:00</time>
      </trkpt>
      <trkpt lat="45.38578" lon="4.72387">
        <ele>256</ele>
        <time>2021-05-30T09:36:20+02:00</time>
      </trkpt>
      <trkpt lat="45.38572" lon="4.72414">
        <ele>256</ele>
        <time>2021-05-30T09:36:25+02:00</time>
      </trkpt>
      <trkpt lat="45.38558" lon="4.72429">
        <ele>257</ele>
        <time>2021-05-30T09:36:30+02:00</time>
      </trkpt>
      <trkpt lat="45.38545" lon="4.7244">
        <ele>257</ele>
        <time>2021-05-30T09:36:35+02:00</time>
      </trkpt>
      <trkpt lat="45.38543" lon="4.72454">
        <ele>257</ele>
        <time>2021-05-30T09:36:40+02:00</time>
      </trkpt>
    </trkseg>
  </trk>
</gpx>